Weather History for Bullhead City, AZ

Change the Weather History Date:

Monday, November 18, 2013

  Actual Average Record
Temperature  
Mean Temperature 60 °F -  
Max Temperature 73 °F 70 °F 84 °F (2008)
Min Temperature 48 °F 51 °F 42 °F (1991)
Degree Days  
Heating Degree Days 4    
Growing Degree Days 10 (Base 50)    
Moisture  
Dew Point 40 °F    
Average Humidity 48    
Maximum Humidity 71    
Minimum Humidity 29    
Precipitation  
Precipitation 0.00 in - - ()
Sea Level Pressure  
Sea Level Pressure 30.07 in    
Wind  
Wind Speed 1 mph (SSW)    
Max Wind Speed 12 mph    
Max Gust Speed 16 mph    
Visibility 10 miles    
Events      
Averages and records for this station are not official NWS values.
T = Trace of Precipitation, MM = Missing Value Source: NWS Daily Summary

Daily Weather History Graph

Daily Weather History Graph

Search for Another Location

Airport:

Trip Planner

Search our weather history database for the weather conditions in past years. The results will help you decide how hot, cold, wet, or windy it might be!

Date:

Astronomy

Nov. 18, 2013 Rise Set
Actual Time 7:16 AM MST 5:30 PM MST
Civil Twilight 6:49 AM MST 5:57 PM MST
Nautical Twilight 6:18 AM MST 6:28 PM MST
Astronomical Twilight 5:48 AM MST 6:58 PM MST
Moon 6:36 PM MST (11/18) 8:08 AM MST (11/18)
Length of Visible Light 11h 08m
Length of Day
10h 14m
Full, 99% of the Moon is Illuminated
Nov 18
Full
Nov 25
Last Quarter
Dec 2
New
Dec 9
First Quarter
Dec 17
Full

Hourly Weather History & Observations

Time (MST) Temp. Dew Point Humidity Pressure Visibility Wind Dir Wind Speed Gust Speed Precip Events Conditions
12:15 AM 57.2 °F 39.2 °F 51% 30.09 in 10.0 mi Calm Calm - N/A   Clear
12:35 AM 57.2 °F 39.2 °F 51% 30.09 in 10.0 mi Calm Calm - N/A   Clear
12:55 AM 57.2 °F 39.2 °F 51% 30.09 in 10.0 mi Calm Calm - N/A   Unknown
1:15 AM 55.4 °F 39.2 °F 54% 30.09 in 10.0 mi Calm Calm - N/A   Clear
1:35 AM 55.4 °F 39.2 °F 54% 30.08 in 10.0 mi Calm Calm - N/A   Clear
1:55 AM 55.4 °F 39.2 °F 54% 30.08 in 10.0 mi Calm Calm - N/A   Clear
2:15 AM 55.4 °F 41.0 °F 58% 30.08 in 10.0 mi Calm Calm - N/A   Clear
2:35 AM 53.6 °F 39.2 °F 58% 30.08 in 10.0 mi Calm Calm - N/A   Clear
2:55 AM 51.8 °F 39.2 °F 62% 30.08 in 10.0 mi Calm Calm - N/A   Clear
3:15 AM 53.6 °F 39.2 °F 58% 30.08 in 10.0 mi Calm Calm - N/A   Clear
3:35 AM 51.8 °F 39.2 °F 62% 30.08 in 10.0 mi Calm Calm - N/A   Clear
3:55 AM 50.0 °F 39.2 °F 66% 30.08 in 10.0 mi Calm Calm - N/A   Clear
4:15 AM 50.0 °F 39.2 °F 66% 30.08 in 10.0 mi Calm Calm - N/A   Clear
4:35 AM 50.0 °F 39.2 °F 66% 30.08 in 10.0 mi South 3.5 mph - N/A   Clear
4:55 AM 50.0 °F 39.2 °F 66% 30.08 in 10.0 mi Calm Calm - N/A   Clear
5:15 AM 50.0 °F 39.2 °F 66% 30.09 in 10.0 mi Calm Calm - N/A   Clear
5:35 AM 50.0 °F 39.2 °F 66% 30.09 in 10.0 mi Calm Calm - N/A   Clear
5:55 AM 50.0 °F 39.2 °F 66% 30.10 in 10.0 mi Calm Calm - N/A   Clear
6:15 AM 50.0 °F 39.2 °F 66% 30.10 in 10.0 mi Calm Calm - N/A   Clear
6:35 AM 50.0 °F 39.2 °F 66% 30.11 in 10.0 mi Calm Calm - N/A   Clear
6:55 AM 48.2 °F 39.2 °F 71% 30.12 in 10.0 mi Calm Calm - N/A   Clear
7:15 AM 48.2 °F 37.4 °F 66% 30.12 in 10.0 mi Calm Calm - N/A   Clear
7:35 AM 48.2 °F 39.2 °F 71% 30.13 in 10.0 mi Calm Calm - N/A   Clear
7:55 AM 50.0 °F 39.2 °F 66% 30.14 in 10.0 mi Calm Calm - N/A   Clear
8:15 AM 50.0 °F 39.2 °F 66% 30.14 in 10.0 mi Calm Calm - N/A   Clear
8:35 AM 50.0 °F 39.2 °F 66% 30.15 in 10.0 mi Calm Calm - N/A   Clear
8:55 AM 53.6 °F 39.2 °F 58% 30.15 in 10.0 mi Calm Calm - N/A   Clear
9:15 AM 53.6 °F 39.2 °F 58% 30.16 in 10.0 mi Calm Calm - N/A   Clear
9:35 AM 55.4 °F 39.2 °F 54% 30.16 in 10.0 mi Calm Calm - N/A   Clear
9:55 AM 57.2 °F 39.2 °F 51% 30.15 in 10.0 mi Calm Calm - N/A   Clear
10:15 AM 57.2 °F 41.0 °F 55% 30.16 in 10.0 mi Calm Calm - N/A   Clear
10:35 AM 60.8 °F 39.2 °F 45% 30.16 in 10.0 mi SW 3.5 mph - N/A   Clear
10:55 AM 62.6 °F 39.2 °F 42% 30.15 in 10.0 mi Calm Calm - N/A   Clear
11:15 AM 64.4 °F 39.2 °F 40% 30.15 in 10.0 mi Calm Calm - N/A   Clear
11:35 AM 66.2 °F 39.2 °F 37% 30.14 in 10.0 mi Calm Calm - N/A   Clear
11:55 AM 68.0 °F 37.4 °F 33% 30.12 in 10.0 mi NNE 11.5 mph - N/A   Clear
12:15 PM 68.0 °F 37.4 °F 33% 30.11 in 10.0 mi North 9.2 mph - N/A   Clear
12:35 PM 69.8 °F 37.4 °F 31% 30.10 in 10.0 mi North 8.1 mph - N/A   Clear
12:55 PM 71.6 °F 39.2 °F 31% 30.09 in 10.0 mi North 6.9 mph - N/A   Clear
1:15 PM 71.6 °F 39.2 °F 31% 30.07 in 10.0 mi NNW 5.8 mph - N/A   Clear
1:35 PM 71.6 °F 39.2 °F 31% 30.06 in 10.0 mi NW 4.6 mph - N/A   Clear
1:55 PM 71.6 °F 39.2 °F 31% 30.05 in 10.0 mi Calm Calm - N/A   Clear
2:15 PM 71.6 °F 39.2 °F 31% 30.04 in 10.0 mi SSW 3.5 mph - N/A   Clear
2:35 PM 73.4 °F 41.0 °F 31% 30.03 in 10.0 mi SW 5.8 mph - N/A   Clear
2:55 PM 73.4 °F 41.0 °F 31% 30.02 in 10.0 mi SW 6.9 mph - N/A   Clear
3:15 PM 73.4 °F 41.0 °F 31% 30.02 in 10.0 mi WSW 8.1 mph - N/A   Clear
3:35 PM 73.4 °F 42.8 °F 33% 30.01 in 10.0 mi SSW 9.2 mph 16.1 mph N/A   Clear
3:55 PM 73.4 °F 41.0 °F 31% 30.01 in 10.0 mi SSW 6.9 mph - N/A   Clear
4:15 PM 73.4 °F 41.0 °F 31% 30.00 in 10.0 mi South 10.4 mph - N/A   Clear
4:35 PM 73.4 °F 39.2 °F 29% 30.00 in 10.0 mi SSW 8.1 mph - N/A   Clear
4:55 PM 73.4 °F 41.0 °F 31% 30.00 in 10.0 mi SW 5.8 mph - N/A   Clear
5:15 PM 71.6 °F 39.2 °F 31% 30.01 in 10.0 mi SW 4.6 mph - N/A   Clear
5:35 PM 71.6 °F 39.2 °F 31% 30.01 in 10.0 mi SSW 4.6 mph - N/A   Clear
5:55 PM 69.8 °F 39.2 °F 33% 30.00 in 10.0 mi Calm Calm - N/A   Clear
6:15 PM 66.2 °F 39.2 °F 37% 30.00 in 10.0 mi SE 3.5 mph - N/A   Clear
6:35 PM 66.2 °F 39.2 °F 37% 30.01 in 10.0 mi Calm Calm - N/A   Clear
6:55 PM 64.4 °F 39.2 °F 40% 30.01 in 10.0 mi Calm Calm - N/A   Clear
7:15 PM 64.4 °F 39.2 °F 40% 30.00 in 10.0 mi SE 4.6 mph - N/A   Clear
7:35 PM 64.4 °F 39.2 °F 40% 30.00 in 10.0 mi SE 3.5 mph - N/A   Clear
7:55 PM 64.4 °F 41.0 °F 42% 30.00 in 10.0 mi ENE 3.5 mph - N/A   Clear
8:15 PM 64.4 °F 39.2 °F 40% 30.01 in 10.0 mi Calm Calm - N/A   Clear
8:35 PM 62.6 °F 41.0 °F 45% 30.00 in 10.0 mi Calm Calm - N/A   Clear
8:55 PM 62.6 °F 41.0 °F 45% 30.01 in 10.0 mi Calm Calm - N/A   Clear
9:15 PM 62.6 °F 41.0 °F 45% 30.00 in 10.0 mi Calm Calm - N/A   Clear
9:35 PM 62.6 °F 41.0 °F 45% 30.00 in 10.0 mi Calm Calm - N/A   Clear
9:55 PM 62.6 °F 41.0 °F 45% 30.00 in 10.0 mi Calm Calm - N/A   Clear
10:15 PM 60.8 °F 41.0 °F 48% 30.01 in 10.0 mi Calm Calm - N/A   Clear
10:35 PM 60.8 °F 41.0 °F 48% 30.01 in 10.0 mi Calm Calm - N/A   Clear
10:55 PM 60.8 °F 39.2 °F 45% 30.01 in 10.0 mi Calm Calm - N/A   Clear
11:15 PM 59.0 °F 41.0 °F 51% 30.01 in 10.0 mi Calm Calm - N/A   Clear
11:35 PM 57.2 °F 39.2 °F 51% 30.01 in 10.0 mi Calm Calm - N/A   Clear
11:55 PM 59.0 °F 39.2 °F 48% 30.00 in 10.0 mi SE 5.8 mph - N/A   Clear